Time;durP1;ratioP1;P1;durP2;ratioP2;P2;SDS_P1;SDS_P2;PMS_P1;PMS_P2;Temp;Humidity;BMP_temperature;BMP_pressure;BME280_temperature;BME280_humidity;BME280_pressure;Samples;Min_cycle;Max_cycle;Signal;HPM_P1;HPM_P2
2021/09/23 00:01:54;;;;;;;7.20;6.60;;;;;;;14.24;71.63;100990.94;10262483;28;20053;-61
2021/09/23 00:06:56;;;;;;;6.93;6.22;;;;;;;14.21;71.64;100988.53;10257636;28;20102;-61
2021/09/23 00:11:57;;;;;;;7.25;6.55;;;;;;;14.18;71.57;100986.09;10258829;28;20058;-61
2021/09/23 00:16:59;;;;;;;8.30;6.95;;;;;;;14.09;71.65;100982.38;10261995;28;20190;-61
2021/09/23 00:22:00;;;;;;;8.13;7.28;;;;;;;13.95;72.11;100970.16;10258671;28;20057;-61
2021/09/23 00:27:02;;;;;;;8.02;6.72;;;;;;;13.99;72.11;100965.38;10260848;28;20069;-61
2021/09/23 00:32:04;;;;;;;7.45;6.68;;;;;;;13.89;72.58;100960.81;10260124;28;20094;-61
2021/09/23 00:37:05;;;;;;;6.78;6.18;;;;;;;13.95;72.51;100960.28;10256067;28;20537;-61
2021/09/23 00:42:08;;;;;;;8.68;7.78;;;;;;;13.95;72.18;100970.16;10264305;28;20054;-61
2021/09/23 00:47:09;;;;;;;10.75;6.93;;;;;;;13.82;72.55;100966.78;10261747;28;20050;-61
2021/09/23 00:52:11;;;;;;;9.25;6.70;;;;;;;13.77;72.74;100957.31;10266800;28;20053;-61
2021/09/23 00:57:17;;;;;;;10.45;7.18;;;;;;;13.79;72.75;100952.66;10260550;28;20062;-68
2021/09/23 01:02:20;;;;;;;7.82;7.03;;;;;;;13.82;72.79;100948.91;10258687;28;20061;-61
2021/09/23 01:07:22;;;;;;;7.97;7.15;;;;;;;13.77;72.81;100946.59;10292992;28;20486;-68
2021/09/23 01:12:25;;;;;;;7.47;6.60;;;;;;;13.75;72.96;100951.25;10312431;28;20045;-60
2021/09/23 01:17:27;;;;;;;7.45;6.70;;;;;;;13.75;72.48;100943.22;10300533;28;20046;-61
2021/09/23 01:22:28;;;;;;;7.13;6.45;;;;;;;13.72;73.11;100938.13;10301347;28;20049;-61
2021/09/23 01:27:30;;;;;;;8.55;7.32;;;;;;;13.67;72.98;100924.25;10301814;28;20058;-61
2021/09/23 01:32:31;;;;;;;7.25;6.55;;;;;;;13.65;73.14;100922.72;10299255;28;20059;-62
2021/09/23 01:37:34;;;;;;;8.25;7.32;;;;;;;13.57;73.16;100916.16;10298495;28;22619;-61
2021/09/23 01:42:36;;;;;;;9.30;8.40;;;;;;;13.56;73.26;100906.44;10263815;28;20046;-61
2021/09/23 01:47:37;;;;;;;8.30;7.50;;;;;;;13.54;72.93;100896.84;10256723;28;20047;-62
2021/09/23 01:52:39;;;;;;;11.80;7.07;;;;;;;13.32;73.66;100887.88;10258628;28;20050;-61
2021/09/23 01:57:40;;;;;;;9.93;6.95;;;;;;;13.32;73.79;100871.84;10260856;28;20054;-61
2021/09/23 02:02:42;;;;;;;11.00;7.57;;;;;;;13.25;73.64;100859.94;10265960;28;20058;-61
2021/09/23 02:07:44;;;;;;;8.32;7.32;;;;;;;13.21;74.22;100847.81;10318760;22;20100;-58
2021/09/23 02:12:45;;;;;;;9.55;7.00;;;;;;;13.13;74.23;100855.63;10326806;28;20058;-58
2021/09/23 02:17:47;;;;;;;7.97;6.70;;;;;;;13.11;74.43;100838.88;10306834;28;20042;-59
2021/09/23 02:22:48;;;;;;;7.68;6.55;;;;;;;13.08;74.31;100848.81;10298999;28;20061;-59
2021/09/23 02:27:49;;;;;;;6.80;6.20;;;;;;;13.13;74.30;100839.56;10299174;28;20051;-59
2021/09/23 02:32:51;;;;;;;8.07;7.28;;;;;;;13.09;74.33;100831.81;10292295;28;20055;-58
2021/09/23 02:37:52;;;;;;;7.45;6.47;;;;;;;13.12;74.21;100832.53;10317714;28;20050;-58
2021/09/23 02:42:54;;;;;;;7.45;6.47;;;;;;;13.08;74.34;100826.59;10297148;28;20397;-59
2021/09/23 02:47:55;;;;;;;9.65;7.20;;;;;;;12.98;74.12;100815.78;10298274;28;20808;-58
2021/09/23 02:52:57;;;;;;;7.05;6.35;;;;;;;12.91;74.22;100806.59;10300394;28;20058;-58
2021/09/23 02:57:59;;;;;;;6.70;6.10;;;;;;;12.90;73.82;100797.72;10298689;28;20422;-58
2021/09/23 03:03:00;;;;;;;8.15;7.35;;;;;;;12.83;73.79;100785.00;10293273;28;20058;-59
2021/09/23 03:08:04;;;;;;;6.85;6.20;;;;;;;12.73;74.29;100784.91;10337145;28;20038;-59
2021/09/23 03:13:05;;;;;;;7.80;7.00;;;;;;;12.72;74.09;100784.03;10326980;28;20053;-58
2021/09/23 03:18:07;;;;;;;8.93;6.78;;;;;;;12.73;73.95;100777.72;10304267;28;20054;-58
2021/09/23 03:23:08;;;;;;;7.20;6.50;;;;;;;12.74;74.12;100770.56;10294678;28;20054;-58
2021/09/23 03:28:11;;;;;;;8.90;6.68;;;;;;;12.74;74.12;100765.22;10294003;28;20057;-58
2021/09/23 03:33:12;;;;;;;9.50;6.78;;;;;;;12.60;73.76;100750.31;10290498;28;20105;-58
2021/09/23 03:38:14;;;;;;;7.60;6.90;;;;;;;12.57;73.92;100744.38;10309898;28;20066;-62
2021/09/23 03:43:16;;;;;;;11.43;7.70;;;;;;;12.56;73.89;100732.84;10296710;28;20447;-58
2021/09/23 03:48:20;;;;;;;7.55;6.82;;;;;;;12.32;73.97;100723.16;10300542;28;20050;-58
2021/09/23 03:53:21;;;;;;;9.38;6.78;;;;;;;12.41;74.30;100731.41;10297318;28;20101;-59
2021/09/23 03:58:23;;;;;;;8.10;7.40;;;;;;;12.27;74.02;100713.84;10295075;28;20096;-58
2021/09/23 04:03:24;;;;;;;9.05;6.80;;;;;;;12.45;73.98;100738.22;10327220;28;20108;-64
2021/09/23 04:08:26;;;;;;;8.70;7.80;;;;;;;12.41;73.60;100732.25;10304707;28;20050;-58
2021/09/23 04:13:27;;;;;;;7.78;7.00;;;;;;;12.36;74.01;100729.97;10312160;28;20057;-57
2021/09/23 04:18:29;;;;;;;7.65;6.93;;;;;;;12.33;74.04;100735.56;10297066;28;20061;-58
2021/09/23 04:23:30;;;;;;;6.97;6.30;;;;;;;12.29;73.62;100733.25;10295596;28;20062;-58
2021/09/23 04:28:32;;;;;;;6.88;6.10;;;;;;;12.18;73.78;100734.13;10297034;28;20046;-57
2021/09/23 04:33:33;;;;;;;7.55;6.50;;;;;;;12.21;73.91;100717.84;10292365;28;20042;-57
2021/09/23 04:38:35;;;;;;;7.50;6.80;;;;;;;12.17;73.60;100711.06;10295921;28;20060;-58
2021/09/23 04:43:36;;;;;;;6.85;5.88;;;;;;;12.18;73.41;100708.25;10295661;28;20050;-58
2021/09/23 04:48:38;;;;;;;9.82;7.75;;;;;;;12.14;73.34;100695.28;10337080;28;20057;-58
2021/09/23 04:53:39;;;;;;;7.65;6.85;;;;;;;12.11;73.47;100685.69;10336223;28;20061;-58
2021/09/23 04:58:41;;;;;;;7.53;6.72;;;;;;;12.03;73.59;100681.00;10318416;28;20041;-57
2021/09/23 05:03:42;;;;;;;10.52;8.10;;;;;;;12.00;73.97;100678.56;10292337;28;20077;-56
2021/09/23 05:08:44;;;;;;;7.32;6.65;;;;;;;12.00;74.07;100675.91;10310921;28;20065;-59
2021/09/23 05:13:46;;;;;;;7.95;7.15;;;;;;;11.97;73.84;100680.63;10315856;28;20399;-58
2021/09/23 05:18:47;;;;;;;7.25;6.53;;;;;;;11.91;73.99;100683.78;10316619;28;20046;-58
2021/09/23 05:23:49;;;;;;;6.80;5.78;;;;;;;11.88;73.91;100676.84;10315771;28;20084;-59
2021/09/23 05:28:51;;;;;;;7.43;6.72;;;;;;;11.90;73.22;100682.91;10316256;28;20645;-59
2021/09/23 05:33:54;;;;;;;9.23;7.20;;;;;;;11.84;73.61;100686.94;10315785;28;20104;-58
2021/09/23 05:39:03;;;;;;;6.82;6.20;;;;;;;11.84;73.63;100702.94;10295681;28;20109;-58
2021/09/23 05:44:05;;;;;;;8.10;6.70;;;;;;;11.82;73.48;100698.66;10323393;28;20053;-58
2021/09/23 05:49:06;;;;;;;9.30;7.05;;;;;;;11.83;73.41;100697.72;10306617;28;20042;-57
2021/09/23 05:54:08;;;;;;;10.38;6.72;;;;;;;11.92;73.07;100713.00;10317587;28;20111;-57
2021/09/23 05:59:09;;;;;;;9.35;7.88;;;;;;;11.91;73.37;100708.63;10296276;28;20109;-57
2021/09/23 06:04:11;;;;;;;8.32;6.75;;;;;;;11.93;73.29;100701.34;10283246;28;20050;-56
2021/09/23 06:09:12;;;;;;;10.40;7.40;;;;;;;11.95;73.69;100699.44;10282907;28;20112;-58
2021/09/23 06:14:14;;;;;;;10.50;7.80;;;;;;;12.00;73.43;100696.41;10320668;28;20045;-58
2021/09/23 06:19:15;;;;;;;10.45;7.70;;;;;;;12.20;73.15;100692.13;10325809;28;20057;-58
2021/09/23 06:24:17;;;;;;;8.48;7.25;;;;;;;12.30;72.90;100698.44;10321268;28;20463;-57
2021/09/23 06:29:19;;;;;;;12.85;7.13;;;;;;;12.48;72.46;100711.28;10341879;28;20058;-57
2021/09/23 06:34:21;;;;;;;11.48;7.53;;;;;;;12.63;72.16;100712.69;10320697;28;20065;-58
2021/09/23 06:39:22;;;;;;;12.52;7.93;;;;;;;12.89;72.13;100707.00;10325032;28;20062;-58
2021/09/23 06:44:25;;;;;;;10.02;7.45;;;;;;;13.07;71.03;100726.84;10319626;28;20045;-57
2021/09/23 06:49:26;;;;;;;9.23;7.53;;;;;;;13.26;70.69;100710.09;10321539;28;21109;-57
2021/09/23 06:54:28;;;;;;;12.13;7.85;;;;;;;13.42;71.14;100699.00;10322926;28;20133;-58
2021/09/23 06:59:29;;;;;;;9.63;7.15;;;;;;;13.69;70.56;100692.25;10324758;28;20060;-58
2021/09/23 07:04:31;;;;;;;13.63;9.23;;;;;;;13.81;69.54;100703.72;10317753;28;20058;-59
2021/09/23 07:09:32;;;;;;;16.02;8.15;;;;;;;13.98;69.28;100707.59;10311929;28;20086;-59
2021/09/23 07:14:34;;;;;;;13.75;9.07;;;;;;;14.19;69.04;100698.66;10299737;28;20050;-60
2021/09/23 07:19:35;;;;;;;15.10;8.40;;;;;;;14.42;68.50;100702.78;10326377;28;20060;-60
2021/09/23 07:24:37;;;;;;;11.77;8.55;;;;;;;14.65;67.69;100689.19;10339652;28;20064;-59
2021/09/23 07:29:39;;;;;;;13.20;8.48;;;;;;;14.87;67.76;100689.91;10329033;28;20045;-59
2021/09/23 07:34:40;;;;;;;14.27;8.55;;;;;;;15.11;66.72;100676.06;10323710;28;20050;-59
2021/09/23 07:39:42;;;;;;;12.60;7.75;;;;;;;15.35;66.37;100665.72;10322387;28;20100;-59
2021/09/23 07:44:44;;;;;;;10.88;7.85;;;;;;;15.54;65.16;100666.69;10319231;28;20493;-62
2021/09/23 07:49:45;;;;;;;7.72;6.60;;;;;;;15.84;64.09;100665.59;10312652;28;20053;-60
2021/09/23 07:54:47;;;;;;;7.57;6.85;;;;;;;16.05;63.58;100651.94;10322732;28;20105;-60
2021/09/23 07:59:49;;;;;;;6.18;4.97;;;;;;;16.28;61.88;100638.09;10306434;28;20058;-59
2021/09/23 08:04:50;;;;;;;8.70;6.88;;;;;;;16.45;61.37;100639.09;10282920;28;20053;-60
2021/09/23 08:09:51;;;;;;;7.45;5.95;;;;;;;16.56;61.05;100628.16;10326100;23;20451;-55
2021/09/23 08:14:53;;;;;;;6.28;5.68;;;;;;;16.88;61.17;100626.75;10295703;28;20058;-56
2021/09/23 08:19:54;;;;;;;6.78;6.07;;;;;;;17.16;60.84;100631.16;10300014;28;20046;-58
2021/09/23 08:24:56;;;;;;;7.70;5.80;;;;;;;17.30;59.78;100636.81;10295809;28;20046;-56
2021/09/23 08:29:58;;;;;;;6.10;5.50;;;;;;;17.59;59.74;100632.94;10333463;28;20046;-56
2021/09/23 08:35:05;;;;;;;7.22;5.85;;;;;;;17.98;58.47;100632.47;10330022;28;20042;-57
2021/09/23 08:40:11;;;;;;;6.65;5.90;;;;;;;18.22;57.18;100630.88;10333064;28;20093;-56
2021/09/23 08:45:15;;;;;;;5.88;5.07;;;;;;;18.46;55.90;100622.00;10332299;28;20046;-55
2021/09/23 08:50:17;;;;;;;9.27;6.03;;;;;;;18.24;55.03;100601.94;10332046;28;20050;-56
2021/09/23 08:55:24;;;;;;;5.90;5.30;;;;;;;18.34;55.52;100608.00;10332599;28;20041;-56
2021/09/23 09:00:26;;;;;;;5.85;5.05;;;;;;;18.53;54.71;100617.63;10294769;28;20093;-57
2021/09/23 09:05:27;;;;;;;6.60;4.97;;;;;;;18.45;54.32;100614.94;10292859;28;20509;-54
2021/09/23 09:10:30;;;;;;;7.65;5.30;;;;;;;18.71;54.49;100622.88;10291760;28;20049;-56
2021/09/23 09:15:44;;;;;;;7.50;4.70;;;;;;;19.35;52.65;100614.09;10300241;28;20062;-57
2021/09/23 09:20:56;;;;;;;6.97;4.85;;;;;;;19.93;51.67;100597.72;10312834;28;20058;-55
2021/09/23 09:25:58;;;;;;;12.18;7.18;;;;;;;20.16;49.42;100596.91;10301215;28;20054;-58
2021/09/23 09:31:01;;;;;;;5.53;5.03;;;;;;;20.71;49.52;100606.69;10293587;28;20100;-56
2021/09/23 09:36:04;;;;;;;6.60;5.25;;;;;;;21.50;47.10;100594.63;10294907;28;20093;-54
2021/09/23 09:41:09;;;;;;;7.97;4.85;;;;;;;22.07;46.24;100576.81;10312998;28;20118;-56
2021/09/23 09:46:30;;;;;;;6.88;4.88;;;;;;;22.83;44.04;100595.28;10318034;28;20054;-55
2021/09/23 09:51:39;;;;;;;5.30;4.63;;;;;;;23.42;43.70;100582.38;10319715;28;20058;-54
2021/09/23 09:56:43;;;;;;;7.35;4.32;;;;;;;23.46;42.91;100564.63;10299337;28;20132;-55
2021/09/23 10:01:58;;;;;;;8.35;3.97;;;;;;;25.43;38.74;100550.91;10292292;28;21647;-56
2021/09/23 10:07:02;;;;;;;7.13;4.30;;;;;;;29.52;30.01;100530.72;10291889;28;20138;-56
2021/09/23 10:12:06;;;;;;;6.78;4.10;;;;;;;31.01;28.96;100514.97;10295312;28;20066;-57
2021/09/23 10:17:07;;;;;;;;;;;;;;;30.13;28.57;100499.00;10297682;28;20054;-60
2021/09/23 10:22:13;;;;;;;6.40;3.13;;;;;;;28.31;30.70;100488.19;10290582;28;19922;-57
2021/09/23 10:32:53;;;;;;;4.10;3.30;;;;;;;28.75;31.37;100444.94;10238206;28;20054;-57
2021/09/23 10:37:59;;;;;;;8.05;3.42;;;;;;;33.10;25.91;100447.59;10294113;28;20491;-55
2021/09/23 10:43:09;;;;;;;6.57;3.22;;;;;;;34.76;22.15;100432.84;10292554;28;20958;-56
2021/09/23 10:48:11;;;;;;;4.50;2.88;;;;;;;36.54;21.00;100427.59;10286661;28;20354;-56
2021/09/23 10:53:13;;;;;;;3.22;2.17;;;;;;;38.04;18.84;100435.59;10286331;28;20061;-56
2021/09/23 10:58:16;;;;;;;3.65;2.42;;;;;;;38.97;17.63;100426.38;10297973;28;20042;-56
2021/09/23 11:03:17;;;;;;;3.45;2.40;;;;;;;39.01;17.51;100424.63;10297334;28;20166;-60
2021/09/23 11:08:21;;;;;;;2.33;2.10;;;;;;;39.41;16.95;100441.59;10287364;28;20050;-58
2021/09/23 11:13:23;;;;;;;2.90;1.52;;;;;;;40.39;15.71;100444.78;10293562;28;20057;-58
2021/09/23 11:18:25;;;;;;;2.03;1.83;;;;;;;39.92;16.32;100435.94;10287975;28;20050;-57
2021/09/23 11:23:27;;;;;;;4.75;1.85;;;;;;;42.01;14.91;100416.22;10292182;28;20409;-55
2021/09/23 11:28:29;;;;;;;4.68;2.15;;;;;;;41.73;15.25;100410.16;10286794;28;20511;-55
2021/09/23 11:33:31;;;;;;;3.65;1.85;;;;;;;42.49;14.67;100422.69;10292037;28;20058;-56
2021/09/23 11:38:33;;;;;;;2.63;1.50;;;;;;;42.10;14.37;100410.63;10287267;28;20204;-58
2021/09/23 11:43:38;;;;;;;7.13;3.13;;;;;;;42.70;14.13;100413.53;10285117;28;20070;-58
2021/09/23 11:48:40;;;;;;;4.22;1.92;;;;;;;42.94;13.76;100400.88;10288288;28;20046;-59
2021/09/23 11:53:50;;;;;;;4.45;1.70;;;;;;;43.53;13.56;100392.41;10289852;28;20054;-58
2021/09/23 11:58:52;;;;;;;3.53;2.17;;;;;;;43.61;13.47;100396.28;10295204;28;20585;-58
2021/09/23 12:03:56;;;;;;;2.53;2.08;;;;;;;44.44;12.71;100391.63;10290149;28;20057;-58
2021/09/23 12:09:09;;;;;;;3.92;2.17;;;;;;;42.78;14.04;100379.09;10291489;28;20050;-60
2021/09/23 12:14:11;;;;;;;4.68;1.65;;;;;;;43.25;13.67;100361.31;10292956;28;20046;-58
2021/09/23 12:19:17;;;;;;;3.05;1.92;;;;;;;42.80;13.56;100347.97;10296501;28;20065;-56
2021/09/23 12:24:30;;;;;;;2.03;1.65;;;;;;;44.10;13.73;100334.78;10297319;28;20085;-63
2021/09/23 12:29:32;;;;;;;3.15;1.85;;;;;;;44.54;12.56;100311.75;10291815;28;20062;-59
2021/09/23 12:34:47;;;;;;;3.28;1.73;;;;;;;44.80;12.61;100307.78;10288864;28;20052;-59
2021/09/23 12:39:49;;;;;;;2.28;1.58;;;;;;;45.32;12.23;100289.25;10291813;28;20046;-59
2021/09/23 12:44:58;;;;;;;2.22;1.65;;;;;;;45.81;11.31;100282.56;10293385;28;20050;-59
2021/09/23 12:50:03;;;;;;;3.10;1.25;;;;;;;45.90;11.79;100274.75;10290870;28;20132;-63
2021/09/23 12:55:23;;;;;;;2.20;1.73;;;;;;;44.42;12.26;100262.09;10283149;28;20046;-59
2021/09/23 13:00:32;;;;;;;3.80;1.60;;;;;;;43.40;13.18;100253.44;10285587;28;20058;-58
2021/09/23 13:05:35;;;;;;;2.75;1.65;;;;;;;41.69;14.14;100227.59;10282615;28;20080;-57
2021/09/23 13:10:37;;;;;;;3.30;1.92;;;;;;;40.79;15.08;100218.84;10288012;28;20058;-57
2021/09/23 13:15:38;;;;;;;2.40;1.40;;;;;;;41.72;14.58;100212.94;10288163;28;20058;-58
2021/09/23 13:20:49;;;;;;;3.10;1.48;;;;;;;41.98;14.96;100207.28;10309167;28;20046;-59
2021/09/23 13:25:56;;;;;;;3.50;1.92;;;;;;;40.74;15.32;100171.56;10290706;28;20791;-57
2021/09/23 13:31:06;;;;;;;3.88;1.73;;;;;;;41.23;15.18;100190.91;10286197;28;20058;-58
2021/09/23 13:36:09;;;;;;;4.22;1.90;;;;;;;38.84;17.12;100197.19;10287418;28;20069;-59
2021/09/23 13:41:11;;;;;;;3.63;2.20;;;;;;;35.49;20.67;100187.94;10285979;28;20061;-56
2021/09/23 13:46:13;;;;;;;2.05;1.80;;;;;;;34.03;23.20;100196.56;10282536;28;20046;-58
2021/09/23 13:51:14;;;;;;;5.22;2.20;;;;;;;32.05;25.42;100168.28;10287135;28;20046;-58
2021/09/23 13:56:16;;;;;;;3.33;1.90;;;;;;;31.52;26.63;100170.97;10283450;28;20050;-55
2021/09/23 14:01:17;;;;;;;2.97;2.10;;;;;;;30.90;27.68;100171.59;10290372;28;20042;-57
2021/09/23 14:06:19;;;;;;;3.33;2.13;;;;;;;30.33;28.16;100171.78;10294427;28;20054;-54
2021/09/23 14:11:21;;;;;;;3.85;2.00;;;;;;;29.85;28.78;100173.38;10318634;23;20054;-63
2021/09/23 14:16:22;;;;;;;;;;;;;;;29.12;29.96;100170.56;10324935;28;20678;-62
2021/09/23 14:21:24;;;;;;;2.75;2.13;;;;;;;29.05;30.53;100150.72;10324557;28;20015;-62
2021/09/23 14:26:28;;;;;;;4.80;2.55;;;;;;;28.74;30.70;100152.97;10324727;28;20073;-61
2021/09/23 14:31:29;;;;;;;3.15;2.33;;;;;;;27.80;32.03;100127.53;10322780;28;20058;-61
2021/09/23 14:36:31;;;;;;;3.50;2.17;;;;;;;27.45;32.52;100125.66;10298330;28;20058;-62
2021/09/23 14:41:43;;;;;;;;;;;;;;;27.15;33.39;100115.66;10280499;28;20054;-61
2021/09/23 14:46:45;;;;;;;3.88;2.17;;;;;;;26.70;33.99;100107.97;10281418;28;19957;-61
2021/09/23 14:51:49;;;;;;;5.45;2.22;;;;;;;26.59;34.39;100095.13;10289726;28;20078;-61
2021/09/23 14:56:51;;;;;;;5.37;1.90;;;;;;;26.24;34.95;100096.66;10297513;28;20164;-66
2021/09/23 15:01:53;;;;;;;4.68;2.45;;;;;;;26.19;35.27;100096.50;10290768;28;20081;-61
2021/09/23 15:06:55;;;;;;;;;;;;;;;26.17;35.41;100095.09;10282451;28;20302;-61
2021/09/23 15:11:57;;;;;;;5.95;2.25;;;;;;;25.94;35.48;100074.78;10280912;28;20290;-61
2021/09/23 15:17:04;;;;;;;2.72;2.30;;;;;;;25.73;36.35;100071.47;10281367;28;20553;-61
2021/09/23 15:22:05;;;;;;;3.72;2.40;;;;;;;25.62;36.49;100063.22;10279646;28;20104;-61
2021/09/23 15:27:07;;;;;;;3.35;2.83;;;;;;;25.53;36.65;100065.41;10300317;28;20061;-61
2021/09/23 15:32:08;;;;;;;5.53;2.22;;;;;;;25.46;37.31;100075.56;10322262;28;20050;-62
2021/09/23 15:37:10;;;;;;;3.35;1.90;;;;;;;25.33;37.52;100080.09;10321478;28;20725;-61
2021/09/23 15:42:11;;;;;;;3.63;1.40;;;;;;;25.16;34.60;100070.78;10320009;28;20064;-62
2021/09/23 15:47:13;;;;;;;2.92;1.00;;;;;;;25.05;33.03;100073.19;10281091;28;20070;-62
2021/09/23 15:52:15;;;;;;;1.58;0.68;;;;;;;24.98;32.03;100080.59;10317972;28;20112;-61
2021/09/23 15:57:16;;;;;;;2.45;0.80;;;;;;;24.42;32.38;100075.97;10320456;28;20530;-61
2021/09/23 16:02:20;;;;;;;1.38;0.98;;;;;;;24.38;32.14;100074.72;10318638;28;20045;-61
2021/09/23 16:07:22;;;;;;;1.13;0.70;;;;;;;24.26;32.46;100078.16;10321451;28;20054;-64
2021/09/23 16:12:26;;;;;;;1.07;0.93;;;;;;;24.22;32.63;100076.91;10318210;28;20191;-61
2021/09/23 16:17:27;;;;;;;2.60;1.20;;;;;;;24.11;32.90;100081.16;10321117;28;20046;-61
2021/09/23 16:22:29;;;;;;;1.20;0.90;;;;;;;24.04;33.21;100065.94;10320128;28;20041;-61
2021/09/23 16:27:30;;;;;;;2.50;0.90;;;;;;;23.80;33.90;100073.75;10318196;28;20491;-61
2021/09/23 16:32:32;;;;;;;1.40;0.93;;;;;;;23.58;34.42;100087.59;10318202;28;20514;-61
2021/09/23 16:37:33;;;;;;;3.33;1.17;;;;;;;23.34;35.42;100091.81;10319071;28;20050;-60
2021/09/23 16:42:35;;;;;;;1.48;0.80;;;;;;;23.22;35.89;100088.09;10317469;28;20218;-61
2021/09/23 16:47:42;;;;;;;1.83;1.17;;;;;;;23.15;36.51;100098.97;10312975;28;20046;-60
2021/09/23 16:52:45;;;;;;;1.20;1.10;;;;;;;23.06;37.12;100089.31;10306809;28;20581;-64
2021/09/23 16:57:46;;;;;;;1.15;1.05;;;;;;;22.97;37.40;100094.13;10317177;28;20048;-60
2021/09/23 17:02:48;;;;;;;1.67;1.17;;;;;;;22.76;37.90;100101.41;10319737;28;20049;-61
2021/09/23 17:07:50;;;;;;;1.63;1.00;;;;;;;22.62;38.53;100098.91;10320238;28;20073;-61
2021/09/23 17:12:51;;;;;;;3.63;1.80;;;;;;;22.51;38.96;100106.59;10315038;28;20065;-61
2021/09/23 17:17:53;;;;;;;2.40;1.55;;;;;;;22.31;39.61;100097.53;10319082;28;20057;-61
2021/09/23 17:22:54;;;;;;;2.30;1.23;;;;;;;22.23;40.16;100103.97;10318514;28;20061;-61
2021/09/23 17:27:56;;;;;;;2.97;2.17;;;;;;;22.05;41.37;100093.69;10319292;28;20057;-61
2021/09/23 17:33:02;;;;;;;3.13;1.83;;;;;;;21.96;42.25;100108.47;10310171;28;20050;-61
2021/09/23 17:38:03;;;;;;;2.78;2.10;;;;;;;21.85;43.10;100105.28;10328186;28;20041;-61
2021/09/23 17:43:05;;;;;;;2.83;1.80;;;;;;;21.85;48.94;100105.28;10325781;28;20054;-61
2021/09/23 17:48:07;;;;;;;2.20;1.73;;;;;;;21.82;44.14;100110.28;10355946;28;20062;-56
2021/09/23 17:53:10;;;;;;;2.47;2.15;;;;;;;21.73;44.87;100098.78;10323345;28;20078;-60
2021/09/23 17:58:12;;;;;;;7.22;3.67;;;;;;;21.72;45.02;100102.53;10324025;28;20092;-57
2021/09/23 18:03:13;;;;;;;4.72;2.53;;;;;;;21.60;45.15;100112.25;10327263;28;20078;-61
2021/09/23 18:08:15;;;;;;;4.28;2.78;;;;;;;21.44;44.79;100119.63;10325499;28;20116;-61
2021/09/23 18:13:17;;;;;;;2.13;1.92;;;;;;;21.36;45.80;100134.16;10323035;28;20125;-61
2021/09/23 18:18:19;;;;;;;2.60;2.03;;;;;;;21.22;46.40;100145.06;10283162;28;20055;-67
2021/09/23 18:23:21;;;;;;;3.47;2.30;;;;;;;21.18;46.54;100142.75;10284986;28;20054;-61
2021/09/23 18:28:23;;;;;;;5.45;1.90;;;;;;;21.12;47.08;100159.78;10282914;28;20061;-61
2021/09/23 18:33:24;;;;;;;3.60;2.20;;;;;;;20.81;48.23;100158.25;10280901;28;20058;-61
2021/09/23 18:38:26;;;;;;;3.33;2.08;;;;;;;20.72;48.59;100164.81;10280986;28;20077;-61
2021/09/23 18:43:27;;;;;;;3.25;2.20;;;;;;;20.71;48.55;100171.25;10279606;28;20101;-61
2021/09/23 18:48:29;;;;;;;6.13;2.38;;;;;;;20.68;49.50;100171.63;10282512;28;21828;-67
2021/09/23 18:53:31;;;;;;;7.35;4.50;;;;;;;20.60;48.29;100155.50;10282701;28;20053;-61
2021/09/23 18:58:34;;;;;;;4.60;3.50;;;;;;;20.44;49.67;100156.56;10280714;28;20392;-61
2021/09/23 19:03:36;;;;;;;3.95;3.22;;;;;;;20.30;48.77;100163.69;10286387;28;20075;-60
2021/09/23 19:08:37;;;;;;;4.88;2.80;;;;;;;20.09;48.15;100161.78;10289575;28;20054;-60
2021/09/23 19:13:39;;;;;;;3.30;3.00;;;;;;;19.95;48.23;100161.59;10282172;28;20412;-65
2021/09/23 19:18:41;;;;;;;3.63;3.28;;;;;;;19.97;48.84;100166.81;10282159;28;20054;-60
2021/09/23 19:23:42;;;;;;;4.07;2.90;;;;;;;19.96;48.61;100165.94;10283449;28;20073;-61
2021/09/23 19:28:44;;;;;;;3.80;2.67;;;;;;;19.92;47.94;100169.22;10281928;28;20063;-61
2021/09/23 19:33:45;;;;;;;2.90;2.03;;;;;;;19.89;48.80;100169.59;10273370;28;20112;-61
2021/09/23 19:38:47;;;;;;;4.40;2.90;;;;;;;19.78;48.64;100158.22;10288075;28;20054;-61
2021/09/23 19:43:48;;;;;;;3.42;2.17;;;;;;;19.70;48.39;100150.19;10323233;28;20057;-61
2021/09/23 19:48:50;;;;;;;4.40;2.78;;;;;;;19.61;48.81;100151.31;10280347;28;20066;-60
2021/09/23 19:53:53;;;;;;;4.93;2.45;;;;;;;19.58;48.76;100136.31;10274654;28;20084;-60
2021/09/23 19:58:54;;;;;;;3.25;2.75;;;;;;;19.56;48.95;100153.72;10279204;28;20065;-60
2021/09/23 20:03:56;;;;;;;4.05;2.28;;;;;;;19.51;49.42;100169.63;10281963;28;20049;-60
2021/09/23 20:08:57;;;;;;;2.45;2.10;;;;;;;19.45;49.23;100173.06;10315568;28;20058;-60
2021/09/23 20:13:58;;;;;;;3.92;2.30;;;;;;;19.24;49.54;100177.31;10316544;28;20038;-60
2021/09/23 20:19:00;;;;;;;2.67;2.10;;;;;;;19.30;50.26;100181.97;10279792;28;20058;-60
2021/09/23 20:24:03;;;;;;;5.07;2.63;;;;;;;19.08;50.31;100200.69;10278812;28;20492;-60
2021/09/23 20:29:04;;;;;;;3.28;2.35;;;;;;;18.99;50.51;100185.59;10279560;28;20101;-60
2021/09/23 20:34:06;;;;;;;3.40;2.50;;;;;;;18.88;50.41;100194.09;10279419;28;20061;-59
2021/09/23 20:39:09;;;;;;;3.45;2.10;;;;;;;18.89;50.39;100207.41;10279112;28;20443;-60
2021/09/23 20:44:10;;;;;;;3.80;2.17;;;;;;;18.92;51.21;100211.63;10274254;28;20046;-61
2021/09/23 20:49:12;;;;;;;3.05;1.80;;;;;;;19.05;51.16;100227.19;10278010;28;20050;-60
2021/09/23 20:54:16;;;;;;;3.08;2.13;;;;;;;19.06;50.89;100229.69;10310360;28;20050;-60
2021/09/23 20:59:36;;;;;;;;;;;;;;;19.04;51.32;100239.84;10317089;28;20042;-60
2021/09/23 21:04:38;;;;;;;4.65;1.85;;;;;;;19.01;51.25;100240.19;10348018;28;19952;-60
2021/09/23 21:09:39;;;;;;;3.53;2.22;;;;;;;19.05;50.71;100244.22;10335823;28;20061;-60
2021/09/23 21:14:44;;;;;;;2.95;1.98;;;;;;;19.03;51.86;100256.19;10293756;28;20583;-60
2021/09/23 21:19:45;;;;;;;3.40;2.20;;;;;;;19.01;51.24;100237.50;10303894;28;20534;-60
2021/09/23 21:24:47;;;;;;;2.95;2.22;;;;;;;18.97;51.56;100246.13;10299050;28;20051;-60
2021/09/23 21:29:48;;;;;;;5.05;2.80;;;;;;;18.89;52.29;100249.72;10291628;28;20047;-60
2021/09/23 21:34:49;;;;;;;5.53;2.50;;;;;;;18.84;51.97;100257.47;10298034;28;20051;-60
2021/09/23 21:39:51;;;;;;;3.90;2.55;;;;;;;18.81;53.17;100260.50;10328835;28;20061;-64
2021/09/23 21:44:52;;;;;;;5.35;3.38;;;;;;;18.78;53.01;100258.16;10330249;28;20058;-60
2021/09/23 21:49:54;;;;;;;4.80;2.28;;;;;;;18.68;53.25;100261.94;10334270;28;20052;-60
2021/09/23 21:54:55;;;;;;;3.10;2.40;;;;;;;18.71;53.69;100274.22;10334494;28;20081;-60
2021/09/23 21:59:57;;;;;;;5.03;2.35;;;;;;;18.72;53.69;100278.63;10337934;28;20050;-61
2021/09/23 22:04:58;;;;;;;3.28;2.97;;;;;;;18.71;53.15;100277.75;10335108;28;20046;-61
2021/09/23 22:10:00;;;;;;;2.47;1.98;;;;;;;18.66;54.23;100282.84;10334761;28;20615;-61
2021/09/23 22:15:02;;;;;;;4.78;3.40;;;;;;;18.67;54.57;100284.50;10334744;28;20064;-61
2021/09/23 22:20:04;;;;;;;6.95;2.53;;;;;;;18.75;54.43;100289.03;10289504;28;20054;-61
2021/09/23 22:25:06;;;;;;;3.88;2.45;;;;;;;18.80;54.24;100291.22;10287572;28;20053;-61
2021/09/23 22:30:10;;;;;;;3.88;2.63;;;;;;;18.79;53.82;100286.81;10282804;28;20046;-61
2021/09/23 22:35:14;;;;;;;4.00;2.33;;;;;;;18.80;54.31;100283.13;10306308;28;20046;-60
2021/09/23 22:40:16;;;;;;;;;;;;;;;18.78;54.48;100295.91;10329700;28;20705;-61
2021/09/23 22:45:17;;;;;;;4.53;2.28;;;;;;;18.83;54.24;100304.34;10324352;28;19948;-60
2021/09/23 22:50:19;;;;;;;2.72;2.20;;;;;;;18.84;54.76;100292.50;10327022;28;20082;-61
2021/09/23 22:55:21;;;;;;;3.03;2.72;;;;;;;18.82;55.03;100291.88;10328247;28;20053;-61
2021/09/23 23:00:22;;;;;;;3.97;2.30;;;;;;;18.80;54.58;100283.94;10328741;28;20454;-64
2021/09/23 23:05:24;;;;;;;3.92;2.28;;;;;;;18.78;55.25;100287.84;10335286;28;20056;-60
2021/09/23 23:10:27;;;;;;;;;;;;;;;18.72;55.76;100294.78;10358800;28;20050;-61
2021/09/23 23:15:29;;;;;;;3.15;2.28;;;;;;;18.61;54.92;100292.47;10329879;28;19928;-60